sensor_id;sensor_type;location;lat;lon;timestamp;pressure;altitude;pressure_sealevel;temperature;humidity
75166;BME280;63747;48.042;10.088;2023-01-15T00:01:49;94302.28;;;6.40;58.76
75166;BME280;63747;48.042;10.088;2023-01-15T00:04:51;94290.25;;;6.46;58.90
75166;BME280;63747;48.042;10.088;2023-01-15T00:07:52;94289.59;;;6.44;58.67
75166;BME280;63747;48.042;10.088;2023-01-15T00:11:01;94283.00;;;6.48;58.64
75166;BME280;63747;48.042;10.088;2023-01-15T00:14:05;94282.69;;;6.51;58.31
75166;BME280;63747;48.042;10.088;2023-01-15T00:17:13;94278.25;;;6.51;57.83
75166;BME280;63747;48.042;10.088;2023-01-15T00:20:14;94273.13;;;6.50;57.60
75166;BME280;63747;48.042;10.088;2023-01-15T00:23:15;94269.03;;;6.47;57.25
75166;BME280;63747;48.042;10.088;2023-01-15T00:26:38;94270.34;;;6.51;56.99
75166;BME280;63747;48.042;10.088;2023-01-15T00:30:11;94259.69;;;6.45;56.68
75166;BME280;63747;48.042;10.088;2023-01-15T00:33:18;94258.50;;;6.47;56.51
75166;BME280;63747;48.042;10.088;2023-01-15T00:36:19;94259.97;;;6.50;56.45
75166;BME280;63747;48.042;10.088;2023-01-15T00:39:27;94259.13;;;6.49;56.39
75166;BME280;63747;48.042;10.088;2023-01-15T00:42:37;94257.00;;;6.53;56.48
75166;BME280;63747;48.042;10.088;2023-01-15T00:45:41;94249.41;;;6.58;56.43
75166;BME280;63747;48.042;10.088;2023-01-15T00:48:43;94250.22;;;6.59;56.24
75166;BME280;63747;48.042;10.088;2023-01-15T00:51:45;94251.06;;;6.59;56.32
75166;BME280;63747;48.042;10.088;2023-01-15T00:54:46;94257.13;;;6.60;56.39
75166;BME280;63747;48.042;10.088;2023-01-15T00:57:51;94248.75;;;6.56;56.25
75166;BME280;63747;48.042;10.088;2023-01-15T01:00:58;94246.94;;;6.57;56.34
75166;BME280;63747;48.042;10.088;2023-01-15T01:04:00;94255.50;;;6.59;56.46
75166;BME280;63747;48.042;10.088;2023-01-15T01:07:04;94242.66;;;6.56;56.45
75166;BME280;63747;48.042;10.088;2023-01-15T01:10:05;94230.69;;;6.53;56.69
75166;BME280;63747;48.042;10.088;2023-01-15T01:13:10;94227.69;;;6.56;56.24
75166;BME280;63747;48.042;10.088;2023-01-15T01:16:37;94224.41;;;6.54;56.50
75166;BME280;63747;48.042;10.088;2023-01-15T01:19:38;94223.41;;;6.55;56.56
75166;BME280;63747;48.042;10.088;2023-01-15T01:22:40;94214.81;;;6.61;56.43
75166;BME280;63747;48.042;10.088;2023-01-15T01:25:44;94230.94;;;6.66;56.73
75166;BME280;63747;48.042;10.088;2023-01-15T01:28:49;94203.41;;;6.69;56.02
75166;BME280;63747;48.042;10.088;2023-01-15T01:31:51;94205.72;;;6.72;55.92
75166;BME280;63747;48.042;10.088;2023-01-15T01:35:12;94206.19;;;6.75;55.85
75166;BME280;63747;48.042;10.088;2023-01-15T01:38:16;94190.88;;;6.79;55.57
75166;BME280;63747;48.042;10.088;2023-01-15T01:41:18;94194.31;;;6.79;55.28
75166;BME280;63747;48.042;10.088;2023-01-15T01:47:35;94196.19;;;6.94;54.05
75166;BME280;63747;48.042;10.088;2023-01-15T01:51:03;94185.13;;;6.98;54.24
75166;BME280;63747;48.042;10.088;2023-01-15T01:54:06;94186.59;;;7.01;54.10
75166;BME280;63747;48.042;10.088;2023-01-15T01:57:09;94190.66;;;7.03;53.68
75166;BME280;63747;48.042;10.088;2023-01-15T02:00:13;94187.84;;;7.05;53.73
75166;BME280;63747;48.042;10.088;2023-01-15T02:03:15;94172.69;;;7.07;53.68
75166;BME280;63747;48.042;10.088;2023-01-15T02:06:18;94168.34;;;7.14;53.36
75166;BME280;63747;48.042;10.088;2023-01-15T02:09:22;94152.84;;;7.19;53.17
75166;BME280;63747;48.042;10.088;2023-01-15T02:12:31;94161.00;;;7.24;52.82
75166;BME280;63747;48.042;10.088;2023-01-15T02:15:49;94150.13;;;7.27;53.15
75166;BME280;63747;48.042;10.088;2023-01-15T02:20:03;94138.78;;;7.27;53.50
75166;BME280;63747;48.042;10.088;2023-01-15T02:22:52;94123.59;;;7.29;53.69
75166;BME280;63747;48.042;10.088;2023-01-15T02:29:38;94117.03;;;7.25;53.89
75166;BME280;63747;48.042;10.088;2023-01-15T02:32:50;94094.06;;;7.19;53.80
75166;BME280;63747;48.042;10.088;2023-01-15T02:36:00;94119.56;;;7.18;53.92
75166;BME280;63747;48.042;10.088;2023-01-15T02:39:04;94107.03;;;7.20;53.46
75166;BME280;63747;48.042;10.088;2023-01-15T02:42:10;94092.22;;;7.19;53.65
75166;BME280;63747;48.042;10.088;2023-01-15T02:45:14;94098.47;;;7.18;53.28
75166;BME280;63747;48.042;10.088;2023-01-15T02:48:26;94095.31;;;7.23;53.49
75166;BME280;63747;48.042;10.088;2023-01-15T02:51:37;94080.59;;;7.28;53.13
75166;BME280;63747;48.042;10.088;2023-01-15T02:54:52;94102.50;;;7.29;53.08
75166;BME280;63747;48.042;10.088;2023-01-15T02:57:56;94077.97;;;7.28;52.93
75166;BME280;63747;48.042;10.088;2023-01-15T03:01:01;94067.03;;;7.31;52.85
75166;BME280;63747;48.042;10.088;2023-01-15T03:04:29;94071.16;;;7.34;52.67
75166;BME280;63747;48.042;10.088;2023-01-15T03:07:42;94065.88;;;7.34;52.57
75166;BME280;63747;48.042;10.088;2023-01-15T03:10:54;94062.25;;;7.35;52.62
75166;BME280;63747;48.042;10.088;2023-01-15T03:14:40;94049.16;;;7.42;52.71
75166;BME280;63747;48.042;10.088;2023-01-15T03:17:53;94046.94;;;7.45;52.52
75166;BME280;63747;48.042;10.088;2023-01-15T03:20:58;94054.69;;;7.47;52.52
75166;BME280;63747;48.042;10.088;2023-01-15T03:24:00;94053.22;;;7.44;52.40
75166;BME280;63747;48.042;10.088;2023-01-15T03:27:04;94061.59;;;7.48;52.58
75166;BME280;63747;48.042;10.088;2023-01-15T03:30:15;94050.44;;;7.46;52.84
75166;BME280;63747;48.042;10.088;2023-01-15T03:33:16;94051.59;;;7.43;52.60
75166;BME280;63747;48.042;10.088;2023-01-15T03:36:17;94063.97;;;7.43;52.63
75166;BME280;63747;48.042;10.088;2023-01-15T03:39:18;94062.97;;;7.44;52.62
75166;BME280;63747;48.042;10.088;2023-01-15T03:42:49;94064.59;;;7.45;52.80
75166;BME280;63747;48.042;10.088;2023-01-15T03:46:56;94067.22;;;7.45;53.00
75166;BME280;63747;48.042;10.088;2023-01-15T03:53:39;94058.41;;;7.38;53.17
75166;BME280;63747;48.042;10.088;2023-01-15T03:56:52;94048.53;;;7.40;53.34
75166;BME280;63747;48.042;10.088;2023-01-15T03:59:57;94037.31;;;7.38;53.46
75166;BME280;63747;48.042;10.088;2023-01-15T04:03:01;94049.50;;;7.39;53.53
75166;BME280;63747;48.042;10.088;2023-01-15T04:06:04;94046.84;;;7.39;53.61
75166;BME280;63747;48.042;10.088;2023-01-15T04:09:08;94039.34;;;7.35;53.36
75166;BME280;63747;48.042;10.088;2023-01-15T04:12:10;94038.69;;;7.33;53.49
75166;BME280;63747;48.042;10.088;2023-01-15T04:15:11;94033.88;;;7.37;53.62
75166;BME280;63747;48.042;10.088;2023-01-15T04:18:12;94036.31;;;7.39;53.72
75166;BME280;63747;48.042;10.088;2023-01-15T04:21:12;94023.41;;;7.44;53.67
75166;BME280;63747;48.042;10.088;2023-01-15T04:24:13;94024.06;;;7.46;53.59
75166;BME280;63747;48.042;10.088;2023-01-15T04:27:14;94021.69;;;7.51;53.64
75166;BME280;63747;48.042;10.088;2023-01-15T04:30:15;94013.41;;;7.54;53.97
75166;BME280;63747;48.042;10.088;2023-01-15T04:33:16;94010.13;;;7.52;54.48
75166;BME280;63747;48.042;10.088;2023-01-15T04:36:17;94021.69;;;7.51;54.74
75166;BME280;63747;48.042;10.088;2023-01-15T04:39:17;94025.94;;;7.52;54.70
75166;BME280;63747;48.042;10.088;2023-01-15T04:42:18;94020.66;;;7.52;55.01
75166;BME280;63747;48.042;10.088;2023-01-15T04:45:37;94014.22;;;7.54;55.10
75166;BME280;63747;48.042;10.088;2023-01-15T04:48:39;94019.31;;;7.56;55.23
75166;BME280;63747;48.042;10.088;2023-01-15T04:51:40;94008.38;;;7.59;55.46
75166;BME280;63747;48.042;10.088;2023-01-15T04:54:41;93991.66;;;7.67;55.76
75166;BME280;63747;48.042;10.088;2023-01-15T04:57:42;94012.19;;;7.71;57.02
75166;BME280;63747;48.042;10.088;2023-01-15T05:00:42;94003.56;;;7.77;56.85
75166;BME280;63747;48.042;10.088;2023-01-15T05:03:43;94012.38;;;7.84;56.80
75166;BME280;63747;48.042;10.088;2023-01-15T05:06:44;93996.75;;;7.83;56.84
75166;BME280;63747;48.042;10.088;2023-01-15T05:09:45;94001.56;;;7.79;57.51
75166;BME280;63747;48.042;10.088;2023-01-15T05:12:48;94014.75;;;7.79;57.79
75166;BME280;63747;48.042;10.088;2023-01-15T05:15:48;94017.56;;;7.78;58.54
75166;BME280;63747;48.042;10.088;2023-01-15T05:18:50;93996.38;;;7.71;59.39
75166;BME280;63747;48.042;10.088;2023-01-15T05:21:51;94007.03;;;7.63;60.20
75166;BME280;63747;48.042;10.088;2023-01-15T05:24:51;94006.94;;;7.56;60.82
75166;BME280;63747;48.042;10.088;2023-01-15T05:27:52;94007.13;;;7.55;61.04
75166;BME280;63747;48.042;10.088;2023-01-15T05:30:53;94020.66;;;7.52;61.47
75166;BME280;63747;48.042;10.088;2023-01-15T05:33:54;94010.78;;;7.54;61.52
75166;BME280;63747;48.042;10.088;2023-01-15T05:36:55;94022.34;;;7.53;61.67
75166;BME280;63747;48.042;10.088;2023-01-15T05:39:55;94021.13;;;7.55;61.87
75166;BME280;63747;48.042;10.088;2023-01-15T05:42:56;94030.69;;;7.56;61.82
75166;BME280;63747;48.042;10.088;2023-01-15T05:46:00;94044.06;;;7.55;62.35
75166;BME280;63747;48.042;10.088;2023-01-15T05:49:03;94034.84;;;7.51;62.50
75166;BME280;63747;48.042;10.088;2023-01-15T05:52:04;94045.06;;;7.54;62.60
75166;BME280;63747;48.042;10.088;2023-01-15T05:55:05;94045.06;;;7.54;62.55
75166;BME280;63747;48.042;10.088;2023-01-15T05:58:06;94055.31;;;7.49;63.04
75166;BME280;63747;48.042;10.088;2023-01-15T06:01:08;94057.50;;;7.45;63.55
75166;BME280;63747;48.042;10.088;2023-01-15T06:04:10;94060.31;;;7.44;63.77
75166;BME280;63747;48.042;10.088;2023-01-15T06:07:13;94054.41;;;7.42;64.29
75166;BME280;63747;48.042;10.088;2023-01-15T06:10:15;94046.84;;;7.39;64.14
75166;BME280;63747;48.042;10.088;2023-01-15T06:13:16;94042.16;;;7.34;64.60
75166;BME280;63747;48.042;10.088;2023-01-15T06:16:17;94044.13;;;7.32;64.65
75166;BME280;63747;48.042;10.088;2023-01-15T06:19:18;94039.44;;;7.27;64.72
75166;BME280;63747;48.042;10.088;2023-01-15T06:22:19;94042.06;;;7.27;64.53
75166;BME280;63747;48.042;10.088;2023-01-15T06:25:19;94053.63;;;7.26;64.67
75166;BME280;63747;48.042;10.088;2023-01-15T06:28:20;94038.53;;;7.20;64.76
75166;BME280;63747;48.042;10.088;2023-01-15T06:31:22;94041.34;;;7.19;64.78
75166;BME280;63747;48.042;10.088;2023-01-15T06:34:25;94031.16;;;7.16;64.83
75166;BME280;63747;48.042;10.088;2023-01-15T06:37:26;94032.50;;;7.12;64.83
75166;BME280;63747;48.042;10.088;2023-01-15T06:40:27;94028.41;;;7.09;64.86
75166;BME280;63747;48.042;10.088;2023-01-15T06:43:28;94026.97;;;7.06;65.24
75166;BME280;63747;48.042;10.088;2023-01-15T06:46:49;94023.16;;;7.09;65.11
75166;BME280;63747;48.042;10.088;2023-01-15T06:50:09;94026.78;;;7.08;65.19
75166;BME280;63747;48.042;10.088;2023-01-15T06:53:10;94030.41;;;7.07;65.35
75166;BME280;63747;48.042;10.088;2023-01-15T06:56:11;94040.97;;;7.07;65.54
75166;BME280;63747;48.042;10.088;2023-01-15T06:59:13;94030.94;;;7.02;65.84
75166;BME280;63747;48.042;10.088;2023-01-15T07:02:14;94032.16;;;7.00;66.48
75166;BME280;63747;48.042;10.088;2023-01-15T07:05:16;94041.38;;;6.96;66.70
75166;BME280;63747;48.042;10.088;2023-01-15T07:08:17;94023.94;;;6.95;66.81
75166;BME280;63747;48.042;10.088;2023-01-15T07:11:18;94029.84;;;6.97;66.93
75166;BME280;63747;48.042;10.088;2023-01-15T07:14:20;94021.94;;;6.97;67.30
75166;BME280;63747;48.042;10.088;2023-01-15T07:17:21;94023.31;;;6.93;67.87
75166;BME280;63747;48.042;10.088;2023-01-15T07:20:22;94026.78;;;6.93;68.00
75166;BME280;63747;48.042;10.088;2023-01-15T07:23:25;94023.13;;;6.94;68.17
75166;BME280;63747;48.042;10.088;2023-01-15T07:26:26;94022.84;;;6.89;68.90
75166;BME280;63747;48.042;10.088;2023-01-15T07:29:27;94014.03;;;6.82;69.20
75166;BME280;63747;48.042;10.088;2023-01-15T07:32:28;94013.31;;;6.88;68.82
75166;BME280;63747;48.042;10.088;2023-01-15T07:35:28;94014.41;;;6.94;68.81
75166;BME280;63747;48.042;10.088;2023-01-15T07:38:30;94004.16;;;6.99;68.65
75166;BME280;63747;48.042;10.088;2023-01-15T07:41:30;94011.50;;;7.03;68.58
75166;BME280;63747;48.042;10.088;2023-01-15T07:44:50;93989.63;;;7.03;69.22
75166;BME280;63747;48.042;10.088;2023-01-15T07:48:10;93987.34;;;7.00;69.38
75166;BME280;63747;48.042;10.088;2023-01-15T07:51:29;93988.16;;;7.00;69.07
75166;BME280;63747;48.042;10.088;2023-01-15T07:54:30;93973.81;;;7.03;68.98
75166;BME280;63747;48.042;10.088;2023-01-15T07:57:31;93977.91;;;7.05;69.15
75166;BME280;63747;48.042;10.088;2023-01-15T08:00:31;93968.00;;;7.07;68.90
75166;BME280;63747;48.042;10.088;2023-01-15T08:03:32;93963.84;;;7.13;68.87
75166;BME280;63747;48.042;10.088;2023-01-15T08:06:33;93961.81;;;7.15;68.84
75166;BME280;63747;48.042;10.088;2023-01-15T08:09:34;93963.91;;;7.20;68.88
75166;BME280;63747;48.042;10.088;2023-01-15T08:12:35;93970.09;;;7.27;68.73
75166;BME280;63747;48.042;10.088;2023-01-15T08:15:55;93964.53;;;7.37;68.49
75166;BME280;63747;48.042;10.088;2023-01-15T08:18:55;93956.88;;;7.42;68.58
75166;BME280;63747;48.042;10.088;2023-01-15T08:21:57;93950.88;;;7.48;68.54
75166;BME280;63747;48.042;10.088;2023-01-15T08:24:57;93958.41;;;7.51;68.34
75166;BME280;63747;48.042;10.088;2023-01-15T08:28:02;93942.47;;;7.59;68.07
75166;BME280;63747;48.042;10.088;2023-01-15T08:31:05;93947.38;;;7.62;67.88
75166;BME280;63747;48.042;10.088;2023-01-15T08:34:06;93946.84;;;7.67;68.04
75166;BME280;63747;48.042;10.088;2023-01-15T08:37:07;93952.47;;;7.63;67.94
75166;BME280;63747;48.042;10.088;2023-01-15T08:40:09;93944.75;;;7.62;67.83
75166;BME280;63747;48.042;10.088;2023-01-15T08:43:10;93947.66;;;7.67;67.59
75166;BME280;63747;48.042;10.088;2023-01-15T08:46:11;93947.75;;;7.74;67.46
75166;BME280;63747;48.042;10.088;2023-01-15T08:49:11;93949.06;;;7.84;67.24
75166;BME280;63747;48.042;10.088;2023-01-15T08:52:13;93953.84;;;7.96;66.94
75166;BME280;63747;48.042;10.088;2023-01-15T08:55:14;93961.63;;;8.04;66.78
75166;BME280;63747;48.042;10.088;2023-01-15T08:58:15;93969.06;;;8.15;66.44
75166;BME280;63747;48.042;10.088;2023-01-15T09:01:16;93968.75;;;8.25;66.15
75166;BME280;63747;48.042;10.088;2023-01-15T09:04:18;93992.56;;;8.31;65.32
75166;BME280;63747;48.042;10.088;2023-01-15T09:07:20;93992.41;;;8.39;64.52
75166;BME280;63747;48.042;10.088;2023-01-15T09:10:21;93992.25;;;8.41;64.92
75166;BME280;63747;48.042;10.088;2023-01-15T09:13:22;94003.38;;;8.36;65.40
75166;BME280;63747;48.042;10.088;2023-01-15T09:16:23;94027.38;;;8.20;65.52
75166;BME280;63747;48.042;10.088;2023-01-15T09:19:26;94048.78;;;8.10;65.66
75166;BME280;63747;48.042;10.088;2023-01-15T09:22:27;94098.97;;;7.96;66.37
75166;BME280;63747;48.042;10.088;2023-01-15T09:25:29;94151.72;;;7.66;67.28
75166;BME280;63747;48.042;10.088;2023-01-15T09:28:31;94151.63;;;6.61;66.44
75166;BME280;63747;48.042;10.088;2023-01-15T09:31:33;94187.97;;;5.95;68.63
75166;BME280;63747;48.042;10.088;2023-01-15T09:34:33;94185.16;;;5.33;70.08
75166;BME280;63747;48.042;10.088;2023-01-15T09:37:34;94220.81;;;5.03;71.49
75166;BME280;63747;48.042;10.088;2023-01-15T09:43:45;94231.28;;;4.79;72.74
75166;BME280;63747;48.042;10.088;2023-01-15T09:47:03;94224.69;;;4.67;73.51
75166;BME280;63747;48.042;10.088;2023-01-15T09:53:58;94230.38;;;4.38;74.48
75166;BME280;63747;48.042;10.088;2023-01-15T09:57:10;94225.47;;;4.34;73.93
75166;BME280;63747;48.042;10.088;2023-01-15T10:00:20;94228.72;;;4.37;74.10
75166;BME280;63747;48.042;10.088;2023-01-15T10:03:40;94244.09;;;4.23;74.45
75166;BME280;63747;48.042;10.088;2023-01-15T10:07:00;94249.63;;;4.20;74.29
75166;BME280;63747;48.042;10.088;2023-01-15T10:10:11;94274.72;;;4.15;74.29
75166;BME280;63747;48.042;10.088;2023-01-15T10:13:21;94282.06;;;4.11;74.52
75166;BME280;63747;48.042;10.088;2023-01-15T10:16:30;94268.59;;;4.06;74.65
75166;BME280;63747;48.042;10.088;2023-01-15T10:19:32;94268.50;;;4.16;74.23
75166;BME280;63747;48.042;10.088;2023-01-15T10:32:50;94284.50;;;4.04;73.78
75166;BME280;63747;48.042;10.088;2023-01-15T10:39:22;94296.50;;;4.07;73.62
75166;BME280;63747;48.042;10.088;2023-01-15T10:42:36;94297.97;;;4.10;73.37
75166;BME280;63747;48.042;10.088;2023-01-15T10:45:44;94295.78;;;4.05;73.47
75166;BME280;63747;48.042;10.088;2023-01-15T10:48:50;94308.41;;;4.01;74.00
75166;BME280;63747;48.042;10.088;2023-01-15T10:51:55;94295.44;;;4.00;73.80
75166;BME280;63747;48.042;10.088;2023-01-15T10:55:05;94295.97;;;4.03;73.89
75166;BME280;63747;48.042;10.088;2023-01-15T10:58:44;94304.44;;;3.97;73.86
75166;BME280;63747;48.042;10.088;2023-01-15T11:01:42;94305.78;;;4.01;73.83
75166;BME280;63747;48.042;10.088;2023-01-15T11:04:43;94314.31;;;4.03;73.71
75166;BME280;63747;48.042;10.088;2023-01-15T11:07:48;94316.38;;;3.92;73.86
75166;BME280;63747;48.042;10.088;2023-01-15T11:10:49;94330.28;;;3.92;73.71
75166;BME280;63747;48.042;10.088;2023-01-15T11:13:54;94336.69;;;3.90;73.42
75166;BME280;63747;48.042;10.088;2023-01-15T11:17:14;94342.78;;;3.72;73.21
75166;BME280;63747;48.042;10.088;2023-01-15T11:20:42;94338.84;;;3.68;73.48
75166;BME280;63747;48.042;10.088;2023-01-15T11:23:44;94350.59;;;3.64;73.55
75166;BME280;63747;48.042;10.088;2023-01-15T11:26:50;94368.97;;;3.72;73.15
75166;BME280;63747;48.042;10.088;2023-01-15T11:29:54;94378.81;;;3.70;73.18
75166;BME280;63747;48.042;10.088;2023-01-15T11:32:57;94377.97;;;3.70;73.27
75166;BME280;63747;48.042;10.088;2023-01-15T11:36:00;94412.50;;;3.65;73.08
75166;BME280;63747;48.042;10.088;2023-01-15T11:39:01;94428.97;;;3.58;73.07
75166;BME280;63747;48.042;10.088;2023-01-15T11:42:04;94428.00;;;3.41;73.17
75166;BME280;63747;48.042;10.088;2023-01-15T11:45:24;94451.31;;;3.34;73.34
75166;BME280;63747;48.042;10.088;2023-01-15T11:48:45;94460.94;;;3.16;73.13
75166;BME280;63747;48.042;10.088;2023-01-15T11:52:11;94478.03;;;3.10;73.29
75166;BME280;63747;48.042;10.088;2023-01-15T11:55:20;94481.97;;;2.96;73.28
75166;BME280;63747;48.042;10.088;2023-01-15T11:58:21;94493.41;;;2.95;73.62
75166;BME280;63747;48.042;10.088;2023-01-15T12:01:27;94491.47;;;2.97;73.51
75166;BME280;63747;48.042;10.088;2023-01-15T12:04:45;94501.94;;;2.97;73.73
75166;BME280;63747;48.042;10.088;2023-01-15T12:07:50;94512.88;;;2.93;73.61
75166;BME280;63747;48.042;10.088;2023-01-15T12:11:18;94514.25;;;2.87;73.74
75166;BME280;63747;48.042;10.088;2023-01-15T12:17:48;94521.25;;;2.96;73.57
75166;BME280;63747;48.042;10.088;2023-01-15T12:21:22;94520.72;;;2.83;73.48
75166;BME280;63747;48.042;10.088;2023-01-15T12:30:59;94540.88;;;2.73;73.34
75166;BME280;63747;48.042;10.088;2023-01-15T12:34:10;94523.25;;;2.75;73.29
75166;BME280;63747;48.042;10.088;2023-01-15T12:37:45;94518.97;;;2.74;73.58
75166;BME280;63747;48.042;10.088;2023-01-15T12:40:58;94522.47;;;2.65;73.64
75166;BME280;63747;48.042;10.088;2023-01-15T12:44:01;94528.22;;;2.68;73.80
75166;BME280;63747;48.042;10.088;2023-01-15T12:47:28;94531.75;;;2.77;73.57
75166;BME280;63747;48.042;10.088;2023-01-15T12:53:45;94542.13;;;2.79;73.88
75166;BME280;63747;48.042;10.088;2023-01-15T12:57:03;94529.56;;;2.82;73.46
75166;BME280;63747;48.042;10.088;2023-01-15T13:00:29;94537.97;;;2.86;73.37
75166;BME280;63747;48.042;10.088;2023-01-15T13:03:48;94542.22;;;2.77;73.43
75166;BME280;63747;48.042;10.088;2023-01-15T13:07:00;94530.78;;;2.78;73.50
75166;BME280;63747;48.042;10.088;2023-01-15T13:10:21;94539.47;;;2.88;73.46
75166;BME280;63747;48.042;10.088;2023-01-15T13:13:28;94544.72;;;2.79;73.70
75166;BME280;63747;48.042;10.088;2023-01-15T13:16:37;94542.78;;;2.81;73.65
75166;BME280;63747;48.042;10.088;2023-01-15T13:20:22;94549.38;;;2.85;73.83
75166;BME280;63747;48.042;10.088;2023-01-15T13:30:10;94554.59;;;2.85;73.89
75166;BME280;63747;48.042;10.088;2023-01-15T13:36:24;94571.03;;;2.77;73.61
75166;BME280;63747;48.042;10.088;2023-01-15T13:39:35;94577.63;;;2.81;73.34
75166;BME280;63747;48.042;10.088;2023-01-15T13:42:38;94579.16;;;2.64;73.61
75166;BME280;63747;48.042;10.088;2023-01-15T13:45:41;94580.44;;;2.60;73.62
75166;BME280;63747;48.042;10.088;2023-01-15T13:48:47;94583.63;;;2.45;73.88
75166;BME280;63747;48.042;10.088;2023-01-15T13:51:49;94589.41;;;2.38;74.10
75166;BME280;63747;48.042;10.088;2023-01-15T13:54:51;94604.56;;;2.45;74.07
75166;BME280;63747;48.042;10.088;2023-01-15T13:57:52;94608.53;;;2.39;73.88
75166;BME280;63747;48.042;10.088;2023-01-15T14:04:34;94593.38;;;2.42;73.61
75166;BME280;63747;48.042;10.088;2023-01-15T14:07:36;94589.53;;;2.47;73.45
75166;BME280;63747;48.042;10.088;2023-01-15T14:10:37;94605.38;;;2.45;73.45
75166;BME280;63747;48.042;10.088;2023-01-15T14:13:52;94600.13;;;2.35;73.63
75166;BME280;63747;48.042;10.088;2023-01-15T14:20:54;94582.22;;;2.31;73.54
75166;BME280;63747;48.042;10.088;2023-01-15T14:28:13;94604.84;;;2.32;73.30
75166;BME280;63747;48.042;10.088;2023-01-15T14:34:32;94618.16;;;2.19;73.25
75166;BME280;63747;48.042;10.088;2023-01-15T14:37:55;94617.47;;;2.07;73.36
75166;BME280;63747;48.042;10.088;2023-01-15T14:40:59;94629.84;;;2.05;73.34
75166;BME280;63747;48.042;10.088;2023-01-15T14:44:01;94641.69;;;2.00;73.55
75166;BME280;63747;48.042;10.088;2023-01-15T14:47:03;94644.53;;;1.97;73.30
75166;BME280;63747;48.042;10.088;2023-01-15T14:50:22;94650.06;;;1.94;73.21
75166;BME280;63747;48.042;10.088;2023-01-15T14:53:38;94652.66;;;1.94;73.36
75166;BME280;63747;48.042;10.088;2023-01-15T14:57:05;94649.09;;;1.95;73.27
75166;BME280;63747;48.042;10.088;2023-01-15T15:00:13;94651.25;;;1.89;73.08
75166;BME280;63747;48.042;10.088;2023-01-15T15:03:20;94654.03;;;1.88;73.05
75166;BME280;63747;48.042;10.088;2023-01-15T15:06:22;94644.53;;;1.87;72.86
75166;BME280;63747;48.042;10.088;2023-01-15T15:09:39;94661.72;;;1.89;72.96
75166;BME280;63747;48.042;10.088;2023-01-15T15:12:47;94650.59;;;1.87;72.95
75166;BME280;63747;48.042;10.088;2023-01-15T15:15:53;94657.59;;;1.87;72.77
75166;BME280;63747;48.042;10.088;2023-01-15T15:19:09;94658.00;;;1.82;72.69
75166;BME280;63747;48.042;10.088;2023-01-15T15:22:13;94663.75;;;1.76;72.58
75166;BME280;63747;48.042;10.088;2023-01-15T15:25:22;94645.31;;;1.68;72.64
75166;BME280;63747;48.042;10.088;2023-01-15T15:28:24;94642.16;;;1.74;72.67
75166;BME280;63747;48.042;10.088;2023-01-15T15:31:25;94652.31;;;1.68;72.34
75166;BME280;63747;48.042;10.088;2023-01-15T15:34:31;94658.88;;;1.62;72.43
75166;BME280;63747;48.042;10.088;2023-01-15T15:37:33;94669.03;;;1.55;72.54
75166;BME280;63747;48.042;10.088;2023-01-15T15:40:35;94647.16;;;1.47;72.38
75166;BME280;63747;48.042;10.088;2023-01-15T15:43:55;94659.53;;;1.45;72.58
75166;BME280;63747;48.042;10.088;2023-01-15T15:47:20;94662.00;;;1.46;72.50
75166;BME280;63747;48.042;10.088;2023-01-15T15:50:40;94667.59;;;1.42;72.46
75166;BME280;63747;48.042;10.088;2023-01-15T15:53:40;94668.56;;;1.41;72.48
75166;BME280;63747;48.042;10.088;2023-01-15T15:56:48;94680.25;;;1.37;72.20
75166;BME280;63747;48.042;10.088;2023-01-15T15:59:51;94677.88;;;1.33;72.36
75166;BME280;63747;48.042;10.088;2023-01-15T16:02:52;94675.03;;;1.37;72.31
75166;BME280;63747;48.042;10.088;2023-01-15T16:06:04;94665.78;;;1.32;72.16
75166;BME280;63747;48.042;10.088;2023-01-15T16:09:08;94672.72;;;1.22;72.28
75166;BME280;63747;48.042;10.088;2023-01-15T16:12:11;94670.97;;;1.23;72.24
75166;BME280;63747;48.042;10.088;2023-01-15T16:15:24;94665.88;;;1.21;72.02
75166;BME280;63747;48.042;10.088;2023-01-15T16:18:31;94677.28;;;1.20;71.97
75166;BME280;63747;48.042;10.088;2023-01-15T16:21:34;94676.81;;;1.15;72.05
75166;BME280;63747;48.042;10.088;2023-01-15T16:24:35;94668.00;;;1.06;72.19
75166;BME280;63747;48.042;10.088;2023-01-15T16:27:36;94666.84;;;0.99;72.25
75166;BME280;63747;48.042;10.088;2023-01-15T16:30:36;94663.69;;;0.96;72.26
75166;BME280;63747;48.042;10.088;2023-01-15T16:33:38;94654.44;;;0.92;72.37
75166;BME280;63747;48.042;10.088;2023-01-15T16:36:41;94663.59;;;0.86;72.42
75166;BME280;63747;48.042;10.088;2023-01-15T16:39:45;94664.19;;;0.90;72.24
75166;BME280;63747;48.042;10.088;2023-01-15T16:42:46;94668.69;;;0.88;71.68
75166;BME280;63747;48.042;10.088;2023-01-15T16:46:16;94665.66;;;0.83;72.11
75166;BME280;63747;48.042;10.088;2023-01-15T16:55:43;94668.81;;;0.65;71.80
75166;BME280;63747;48.042;10.088;2023-01-15T16:58:44;94672.25;;;0.66;71.80
75166;BME280;63747;48.042;10.088;2023-01-15T17:01:46;94654.81;;;0.66;71.81
75166;BME280;63747;48.042;10.088;2023-01-15T17:04:48;94658.13;;;0.68;71.82
75166;BME280;63747;48.042;10.088;2023-01-15T17:07:52;94654.59;;;0.69;71.56
75166;BME280;63747;48.042;10.088;2023-01-15T17:10:57;94667.22;;;0.74;71.29
75166;BME280;63747;48.042;10.088;2023-01-15T17:14:19;94664.88;;;0.71;71.22
75166;BME280;63747;48.042;10.088;2023-01-15T17:20:23;94658.13;;;0.68;71.09
75166;BME280;63747;48.042;10.088;2023-01-15T17:23:28;94646.88;;;0.68;70.93
75166;BME280;63747;48.042;10.088;2023-01-15T17:26:29;94654.38;;;0.61;70.88
75166;BME280;63747;48.042;10.088;2023-01-15T17:29:30;94649.88;;;0.63;70.85
75166;BME280;63747;48.042;10.088;2023-01-15T17:32:32;94660.31;;;0.63;70.65
75166;BME280;63747;48.042;10.088;2023-01-15T17:35:36;94670.28;;;0.58;70.51
75166;BME280;63747;48.042;10.088;2023-01-15T17:38:37;94666.03;;;0.57;70.34
75166;BME280;63747;48.042;10.088;2023-01-15T17:41:38;94666.84;;;0.58;70.32
75166;BME280;63747;48.042;10.088;2023-01-15T17:44:39;94673.47;;;0.62;69.86
75166;BME280;63747;48.042;10.088;2023-01-15T17:47:39;94666.84;;;0.58;70.01